Terminal Aerodrome Forecast
Issued by NWS

Home | Current Version | Previous Version | Text Only | Print | Product List | Glossary On
Versions: 1 2 3 4 5 6 7 8 9 10 11 12 13
275
FTUS43 KTOP 081734
TAFMHK
TAF
KMHK 081734Z 0818/0918 33015G24KT P6SM SCT045
     FM082300 32009KT P6SM FEW045=

USA.gov is the U.S. government's official web portal to all federal, state and local government web resources and services.